Aérodrome :
LOGIN :

S'inscrire | Disclaimer

   EN    FR    IT 

 










Légende :    VFR   VFR Marginal   IFR   IFR Intensif   IFR Très Intensif
Visi : 
Plafond : 
>= 8 km
>= 3000ft
5 à 8 km
1000 à 3000 ft
1500m à 5 km
500 à 1000 ft
800 à 1500m
200 à 500 ft
< 800m
< 200 ft
Symboles :   Orages  Brouillard  Fortes neiges  Fortes précipitations  Vent > 20 kt
SIGMETs :   Divers  Orages  Givrage  Turbulence  Onde Orograph.  Cendres Volcan.







- Altitude de l'aérodrome : 290 ft
- Code IATA : ACI
- Voir les cartes d'approche


EGJA - Alderney

DERNIER METAR :
  • 161450Z 16010KT 4000 BR BKN002 09/08 Q1023

METARs EXPIRÉS :
  • 161420Z 17008KT 3000 BR BKN002 09/08 Q1023
  • 161350Z 17010KT 2000 BR BKN001 09/08 Q1023
  • 161320Z 17011KT 2000 BR BKN001 09/08 Q1024
  • 161250Z 16011KT 4000 BR BKN003 09/08 Q1024
  • 161220Z 16010KT 4000 BR BKN002 09/09 Q1024

TAF TAF EGJA
Valide du 16 à 15h jusqu'au 16 à 19h UTC


161405Z 1615/1619 16010KT 2000 BR BKN003
PROB40
TEMPO 1615/1617 0800 BCFG BKN001
BECMG 1616/1618 5000 BR SCT006
TEMPO 1617/1619 9999 NSW FEW008
Pas de NOTAMs connus pour ce terrain.



MET'MAP, la Météo Aéronautique d'un coup d'oeil ! - Copyright ORBIFLY Décembre 2007 - Disclaimer

ORBIFLY MET'MAP TEAM :

Programmation & Développement : Alexandra Zaïnal
Conception & Développement : Baudouin d'Aumeries
Co-Programmation & Développement : Marc-Olivier Méhu
Soutien technique & logistique : Manuel Goepfert

Contact : metmap@orbifly.com




SOURCES & CREDITS :

   NOAA